Dades meteomassalio
Diari Summary for Noviembre 9, 2017 Units:  Metric    English   Both
« Previous Day
Next Day »
Diari Semanal Mensual Anual Personalitzat
  Maxima: Minima: Mijana:
Temperatura: -17.8 °C -15.3 °C -13.1 °C
Rosada: -17.8 °C -17.8 °C -16.2 °C
Humitat: Humidity % 52 % 68 %
Velocitat del vent: 0 km/h 0 km/h 38.1 km/h
Racha vent: 0 km/h - -
Vent:- - NW
Pressio: 0 hPa 34726.8 hPa -
Pluja: 0 mm    
Historical Graphs
 
 
Tabular Data for Noviembre 9, 2017
Time Temperature Dew Point Pressure Wind Wind Speed Wind Gust Humidity Rainfall Rate (Hourly) solar Conditions
-17.8 °C -17.8 °C 0 hPa Calm     Humidity % 0 mm SolarRadiationWatts/m^2 W/m2 Conditions
00:04 -14.4 °C -16.8 °C 34740.4 hPa NW 44.7 km/h 44.7 km/h 74 % 0 mm 0.0 W/m2 CLR
00:09 -14.4 °C -16.8 °C 34740.4 hPa NW 50.7 km/h 50.7 km/h 74 % 0 mm 0.0 W/m2 CLR
00:14 -14.4 °C -16.8 °C 34740.4 hPa NNW 31.1 km/h 31.1 km/h 74 % 0 mm 0.0 W/m2 CLR
00:19 -14.4 °C -16.8 °C 34740.4 hPa NW 29.8 km/h 29.8 km/h 74 % 0 mm 0.0 W/m2 CLR
00:24 -14.4 °C -16.8 °C 34740.4 hPa NW 41.7 km/h 41.7 km/h 74 % 0 mm 0.0 W/m2 CLR
00:29 -14.4 °C -16.9 °C 34750.5 hPa WNW 29.8 km/h 29.8 km/h 73 % 0 mm 0.0 W/m2 CLR
00:34 -14.7 °C -17.1 °C 34750.5 hPa NW 26.9 km/h 26.9 km/h 74 % 0 mm 0.0 W/m2 CLR
00:39 -14.7 °C -17.1 °C 34750.5 hPa NW 29.8 km/h 29.8 km/h 74 % 0 mm 0.0 W/m2 CLR
00:44 -14.7 °C -17.1 °C 34750.5 hPa NW 29.8 km/h 29.8 km/h 74 % 0 mm 0.0 W/m2 CLR
00:49 -14.7 °C -17.1 °C 34760.7 hPa NW 26.9 km/h 26.9 km/h 74 % 0 mm 0.0 W/m2 CLR
00:54 -14.7 °C -17.1 °C 34760.7 hPa NNW 32.8 km/h 32.8 km/h 74 % 0 mm 0.0 W/m2 CLR
00:59 -14.7 °C -17.1 °C 34760.7 hPa NW 29.8 km/h 29.8 km/h 74 % 0 mm 0.0 W/m2 CLR
01:04 -14.7 °C -17.1 °C 34760.7 hPa NNW 32.8 km/h 32.8 km/h 74 % 0 mm 0.0 W/m2 CLR
01:09 -14.7 °C -17.1 °C 34760.7 hPa NW 41.7 km/h 41.7 km/h 74 % 0 mm 0.0 W/m2 CLR
01:15 -14.7 °C -17.1 °C 34760.7 hPa NW 38.8 km/h 38.8 km/h 74 % 0 mm 0.0 W/m2 CLR
01:20 -14.7 °C -17.2 °C 34760.7 hPa NNW 29.8 km/h 29.8 km/h 73 % 0 mm 0.0 W/m2 CLR
01:25 -14.7 °C -17.1 °C 34760.7 hPa NW 31.1 km/h 31.1 km/h 74 % 0 mm 0.0 W/m2 CLR
01:30 -14.7 °C -17.1 °C 34760.7 hPa NW 38.8 km/h 38.8 km/h 74 % 0 mm 0.0 W/m2 CLR
01:35 -14.7 °C -17.1 °C 34750.5 hPa NW 32.8 km/h 32.8 km/h 74 % 0 mm 0.0 W/m2 CLR
01:40 -14.7 °C -17.1 °C 34750.5 hPa NW 32.8 km/h 32.8 km/h 74 % 0 mm 0.0 W/m2 CLR
01:45 -14.7 °C -17.1 °C 34750.5 hPa WNW 26.9 km/h 26.9 km/h 74 % 0 mm 0.0 W/m2 CLR
01:50 -14.7 °C -17.1 °C 34760.7 hPa NW 29.8 km/h 29.8 km/h 74 % 0 mm 0.0 W/m2 CLR
01:55 -14.7 °C -17.1 °C 34760.7 hPa WNW 26.9 km/h 26.9 km/h 74 % 0 mm 0.0 W/m2 CLR
02:00 -15 °C -17.4 °C 34750.5 hPa NW 32.8 km/h 32.8 km/h 74 % 0 mm 0.0 W/m2 CLR
02:05 -15 °C -17.4 °C 34760.7 hPa WNW 31.1 km/h 31.1 km/h 74 % 0 mm 0.0 W/m2 CLR
02:10 -15 °C -17.4 °C 34750.5 hPa WNW 20.9 km/h 20.9 km/h 74 % 0 mm 0.0 W/m2 CLR
02:15 -15 °C -17.4 °C 34760.7 hPa NW 26.9 km/h 26.9 km/h 74 % 0 mm 0.0 W/m2 CLR
02:20 -15 °C -17.4 °C 34760.7 hPa NW 23.8 km/h 23.8 km/h 74 % 0 mm 0.0 W/m2 CLR
02:25 -15.3 °C -17.7 °C 34760.7 hPa NW 23.8 km/h 23.8 km/h 74 % 0 mm 0.0 W/m2 CLR
02:30 -15.3 °C -17.7 °C 34760.7 hPa NW 20.9 km/h 20.9 km/h 74 % 0 mm 0.0 W/m2 CLR
02:35 -15.3 °C -17.7 °C 34750.5 hPa WNW 29.8 km/h 29.8 km/h 74 % 0 mm 0.0 W/m2 CLR
02:40 -15.3 °C -17.7 °C 34750.5 hPa WNW 26.9 km/h 26.9 km/h 74 % 0 mm 0.0 W/m2 CLR
02:45 -15.3 °C -17.7 °C 34750.5 hPa NW 29.8 km/h 29.8 km/h 74 % 0 mm 0.0 W/m2 CLR
02:50 -15.3 °C -17.7 °C 34750.5 hPa WNW 29.8 km/h 29.8 km/h 74 % 0 mm 0.0 W/m2 CLR
02:55 -15 °C -17.4 °C 34750.5 hPa NW 29.8 km/h 29.8 km/h 74 % 0 mm 0.0 W/m2 CLR
03:00 -15 °C -17.4 °C 34750.5 hPa NW 29.8 km/h 29.8 km/h 73 % 0 mm 0.0 W/m2 CLR
03:05 -15 °C -17.4 °C 34750.5 hPa WNW 26.9 km/h 26.9 km/h 73 % 0 mm 0.0 W/m2 CLR
03:10 -14.7 °C -17.2 °C 34750.5 hPa NW 29.8 km/h 29.8 km/h 73 % 0 mm 0.0 W/m2 CLR
03:15 -14.7 °C -17.2 °C 34750.5 hPa WNW 35.7 km/h 35.7 km/h 73 % 0 mm 0.0 W/m2 CLR
03:20 -15 °C -17.4 °C 34750.5 hPa West 26.9 km/h 26.9 km/h 73 % 0 mm 0.0 W/m2 CLR
03:25 -15 °C -17.4 °C 34750.5 hPa WNW 29.8 km/h 29.8 km/h 74 % 0 mm 0.0 W/m2 CLR
03:30 -15 °C -17.4 °C 34750.5 hPa WNW 26.9 km/h 26.9 km/h 74 % 0 mm 0.0 W/m2 CLR
03:35 -15.3 °C -17.7 °C 34750.5 hPa WNW 26.9 km/h 26.9 km/h 74 % 0 mm 0.0 W/m2 CLR
03:40 -15.3 °C -17.8 °C 34740.4 hPa NW 29.8 km/h 29.8 km/h 73 % 0 mm 0.0 W/m2 CLR
03:45 -15.3 °C -17.8 °C 34740.4 hPa NW 35.7 km/h 35.7 km/h 73 % 0 mm 0.0 W/m2 CLR
03:50 -15 °C -17.4 °C 34740.4 hPa WNW 26.9 km/h 26.9 km/h 73 % 0 mm 0.0 W/m2 CLR
03:55 -15 °C -17.4 °C 34740.4 hPa WNW 26.9 km/h 26.9 km/h 73 % 0 mm 0.0 W/m2 CLR
04:00 -15 °C -17.4 °C 34740.4 hPa WNW 29.8 km/h 29.8 km/h 73 % 0 mm 0.0 W/m2 CLR
04:05 -15 °C -17.4 °C 34740.4 hPa NNW 32.8 km/h 32.8 km/h 73 % 0 mm 0.0 W/m2 CLR
04:10 -15 °C -17.4 °C 34740.4 hPa NW 29.8 km/h 29.8 km/h 73 % 0 mm 0.0 W/m2 CLR
04:19 -15 °C -17.4 °C 34726.8 hPa NW 29.8 km/h 29.8 km/h 73 % 0 mm 0.0 W/m2 CLR
04:21 -14.7 °C -17.2 °C 34740.4 hPa NW 33.6 km/h 33.6 km/h 73 % 0 mm 0.0 W/m2 CLR
04:26 -14.7 °C -17.2 °C 34740.4 hPa NW 32.8 km/h 32.8 km/h 73 % 0 mm 0.0 W/m2 CLR
04:27 -14.7 °C -17.2 °C 34740.4 hPa NW 32.8 km/h 32.8 km/h 73 % 0 mm 0.0 W/m2 CLR
04:28 -14.7 °C -17.2 °C 34740.4 hPa NW 35.7 km/h 35.7 km/h 73 % 0 mm 0.0 W/m2 CLR
04:31 -14.7 °C -17.2 °C 34726.8 hPa NW 38.8 km/h 38.8 km/h 73 % 0 mm 0.0 W/m2 CLR
04:36 -14.7 °C -17.2 °C 34740.4 hPa WNW 29.8 km/h 29.8 km/h 73 % 0 mm 0.0 W/m2 CLR
04:41 -14.7 °C -17.2 °C 34740.4 hPa WNW 29.8 km/h 29.8 km/h 73 % 0 mm 0.0 W/m2 CLR
04:42 -14.7 °C -17.2 °C 34740.4 hPa WNW 38.8 km/h 38.8 km/h 73 % 0 mm 0.0 W/m2 CLR
04:47 -14.7 °C -17.2 °C 34740.4 hPa NW 35.7 km/h 35.7 km/h 73 % 0 mm 0.0 W/m2 CLR
04:52 -14.7 °C -17.2 °C 34740.4 hPa NW 35.7 km/h 35.7 km/h 73 % 0 mm 0.0 W/m2 CLR
04:53 -14.7 °C -17.2 °C 34740.4 hPa NW 32.8 km/h 32.8 km/h 73 % 0 mm 0.0 W/m2 CLR
04:58 -14.7 °C -17.2 °C 34740.4 hPa NW 29.8 km/h 29.8 km/h 73 % 0 mm 0.0 W/m2 CLR
05:03 -14.7 °C -17.2 °C 34740.4 hPa WNW 32.8 km/h 32.8 km/h 73 % 0 mm 0.0 W/m2 CLR
05:08 -14.7 °C -17.2 °C 34740.4 hPa NW 29.8 km/h 29.8 km/h 73 % 0 mm 0.0 W/m2 CLR
05:13 -14.7 °C -17.2 °C 34740.4 hPa NW 28.5 km/h 28.5 km/h 73 % 0 mm 0.0 W/m2 CLR
05:18 -14.7 °C -17.2 °C 34740.4 hPa NW 41.4 km/h 41.4 km/h 73 % 0 mm 0.0 W/m2 CLR
05:23 -14.7 °C -17.2 °C 34740.4 hPa NW 32.8 km/h 32.8 km/h 73 % 0 mm 0.0 W/m2 CLR
05:28 -14.7 °C -17.2 °C 34740.4 hPa WNW 25.9 km/h 25.9 km/h 73 % 0 mm 0.0 W/m2 CLR
05:29 -14.7 °C -17.2 °C 34740.4 hPa NNW 26.9 km/h 26.9 km/h 73 % 0 mm 0.0 W/m2 CLR
05:34 -14.7 °C -17.2 °C 34740.4 hPa WNW 26.9 km/h 26.9 km/h 73 % 0 mm 0.0 W/m2 CLR
05:39 -14.7 °C -17.1 °C 34740.4 hPa NW 29.8 km/h 29.8 km/h 74 % 0 mm 0.0 W/m2 CLR
05:44 -14.7 °C -17.2 °C 34750.5 hPa WNW 26.9 km/h 26.9 km/h 73 % 0 mm 0.0 W/m2 CLR
05:49 -14.7 °C -17.2 °C 34750.5 hPa NW 26.9 km/h 26.9 km/h 73 % 0 mm 0.0 W/m2 CLR
05:54 -14.7 °C -17.2 °C 34740.4 hPa WNW 20.9 km/h 20.9 km/h 73 % 0 mm 0.0 W/m2 CLR
05:59 -14.7 °C -17.2 °C 34740.4 hPa WNW 23.8 km/h 23.8 km/h 73 % 0 mm 0.0 W/m2 CLR
06:04 -14.7 °C -17.2 °C 34740.4 hPa NW 15.6 km/h 15.6 km/h 73 % 0 mm 0.0 W/m2 CLR
06:09 -14.7 °C -17.2 °C 34740.4 hPa WNW 15.6 km/h 15.6 km/h 73 % 0 mm 0.0 W/m2 CLR
06:14 -14.7 °C -17.2 °C 34740.4 hPa West 25.9 km/h 25.9 km/h 73 % 0 mm 0.0 W/m2 CLR
06:20 -14.7 °C -17.2 °C 34740.4 hPa WNW 17.9 km/h 17.9 km/h 73 % 0 mm 0.0 W/m2 CLR
06:24 -14.7 °C -17.2 °C 34740.4 hPa NW 23.8 km/h 23.8 km/h 73 % 0 mm 0.0 W/m2 CLR
06:30 -14.7 °C -17.2 °C 34750.5 hPa Calm     73 % 0 mm 0.0 W/m2 CLR
06:35 -14.7 °C -17.2 °C 34740.4 hPa North 25.9 km/h 25.9 km/h 73 % 0 mm 0.0 W/m2 CLR
06:40 -14.4 °C -16.8 °C 34750.5 hPa NW 20.9 km/h 20.9 km/h 74 % 0 mm 0.0 W/m2 CLR
06:45 -14.4 °C -16.9 °C 34750.5 hPa NW 26.9 km/h 26.9 km/h 73 % 0 mm 0.0 W/m2 CLR
06:50 -14.4 °C -16.9 °C 34750.5 hPa NW 20.9 km/h 20.9 km/h 73 % 0 mm 0.0 W/m2 CLR
06:55 -14.4 °C -16.9 °C 34750.5 hPa NNW 17.9 km/h 17.9 km/h 73 % 0 mm 0.0 W/m2 CLR
07:00 -14.4 °C -16.9 °C 34750.5 hPa NW 20.9 km/h 20.9 km/h 73 % 0 mm 0.0 W/m2 CLR
07:05 -14.4 °C -16.9 °C 34750.5 hPa NW 11.9 km/h 11.9 km/h 73 % 0 mm 0.0 W/m2 CLR
07:10 -14.4 °C -16.9 °C 34760.7 hPa NNW 26.9 km/h 26.9 km/h 73 % 0 mm 0.0 W/m2 CLR
07:15 -14.4 °C -16.9 °C 34750.5 hPa NNW 15 km/h 15.3 km/h 73 % 0 mm 0.0 W/m2 CLR
07:20 -14.4 °C -16.9 °C 34750.5 hPa NW 23.8 km/h 23.8 km/h 73 % 0 mm 0.0 W/m2 CLR
07:25 -14.1 °C -16.6 °C 34750.5 hPa North 23.8 km/h 23.8 km/h 73 % 0 mm 0.0 W/m2 CLR
07:30 -14.1 °C -16.6 °C 34750.5 hPa NW 20.9 km/h 20.9 km/h 73 % 0 mm 0.0 W/m2 CLR
07:35 -14.1 °C -16.6 °C 34750.5 hPa NW 26.9 km/h 26.9 km/h 73 % 0 mm 0.0 W/m2 OVC
07:37 -14.1 °C -16.6 °C 34750.5 hPa WNW 23.8 km/h 23.8 km/h 73 % 0 mm 0.0 W/m2 OVC
07:42 -14.1 °C -16.6 °C 34750.5 hPa WNW 15 km/h 15 km/h 73 % 0 mm 5.0 W/m2 OVC
07:47 -14.1 °C -16.6 °C 34760.7 hPa NW 11.9 km/h 12.2 km/h 73 % 0 mm 7.0 W/m2 OVC
07:52 -14.1 °C -16.6 °C 34760.7 hPa West 23.8 km/h 23.8 km/h 73 % 0 mm 12.0 W/m2 OVC
07:57 -14.1 °C -16.6 °C 34760.7 hPa NNW 15 km/h 15 km/h 73 % 0 mm 16.0 W/m2 OVC
08:02 -14.1 °C -16.6 °C 34760.7 hPa NNW 12.9 km/h 12.9 km/h 73 % 0 mm 16.0 W/m2 OVC
08:07 -14.1 °C -16.6 °C 34760.7 hPa NW 32.8 km/h 32.8 km/h 73 % 0 mm 25.0 W/m2 OVC
08:12 -14.1 °C -16.6 °C 34774.2 hPa NNW 36.2 km/h 36.2 km/h 73 % 0 mm 21.0 W/m2 OVC
08:17 -14.1 °C -16.6 °C 34774.2 hPa NNW 29.8 km/h 29.8 km/h 73 % 0 mm 21.0 W/m2 OVC
08:22 -14.1 °C -16.6 °C 34774.2 hPa NW 41.7 km/h 41.7 km/h 73 % 0 mm 25.0 W/m2 OVC
08:27 -14.1 °C -16.6 °C 34774.2 hPa NNW 44.7 km/h 44.7 km/h 73 % 0 mm 26.0 W/m2 OVC
08:32 -13.8 °C -16.3 °C 34774.2 hPa North 32.8 km/h 32.8 km/h 73 % 0 mm 28.0 W/m2 OVC
08:37 -13.8 °C -16.2 °C 34784.4 hPa NW 35.7 km/h 35.7 km/h 74 % 0 mm 39.0 W/m2 OVC
08:42 -13.8 °C -16.2 °C 34784.4 hPa NNW 33.6 km/h 33.6 km/h 74 % 0 mm 46.0 W/m2 OVC
08:47 -13.8 °C -16.2 °C 34784.4 hPa NW 23.8 km/h 23.8 km/h 74 % 0 mm 49.0 W/m2 BKN
08:52 -13.8 °C -16.3 °C 34784.4 hPa North 23.8 km/h 23.8 km/h 73 % 0 mm 69.0 W/m2 SCT
08:57 -13.8 °C -16.3 °C 34784.4 hPa NNW 29.8 km/h 29.8 km/h 73 % 0 mm 69.0 W/m2 FEW
09:02 -13.4 °C -16 °C 34797.9 hPa NNW 29.8 km/h 29.8 km/h 73 % 0 mm 88.0 W/m2 FEW
09:07 -13.4 °C -16 °C 34797.9 hPa NNW 41.7 km/h 41.7 km/h 73 % 0 mm 98.0 W/m2 CLR
09:12 -13.4 °C -16.1 °C 34797.9 hPa WNW 29.8 km/h 29.8 km/h 72 % 0 mm 113.0 W/m2 CLR
09:17 -13.4 °C -16 °C 34784.4 hPa NNW 25.9 km/h 25.9 km/h 73 % 0 mm 128.0 W/m2 CLR
09:22 -13.4 °C -16.1 °C 34784.4 hPa ESE 31.1 km/h 31.1 km/h 72 % 0 mm 223.0 W/m2 CLR
09:27 -13.2 °C -15.8 °C 34784.4 hPa NW 41.7 km/h 41.7 km/h 72 % 0 mm 160.0 W/m2 CLR
09:32 -13.2 °C -15.8 °C 34784.4 hPa NNW 44.7 km/h 44.7 km/h 72 % 0 mm 239.0 W/m2 CLR
09:37 -12.8 °C -15.6 °C 34797.9 hPa NNW 41.4 km/h 41.4 km/h 71 % 0 mm 146.0 W/m2 CLR
09:42 -13.2 °C -15.9 °C 34797.9 hPa NW 56.6 km/h 56.6 km/h 71 % 0 mm 288.0 W/m2 CLR
09:47 -12.8 °C -15.6 °C 34797.9 hPa NW 38.8 km/h 38.8 km/h 71 % 0 mm 323.0 W/m2 CLR
09:52 -12.8 °C -15.7 °C 34784.4 hPa NNW 29.8 km/h 29.8 km/h 70 % 0 mm 410.0 W/m2 CLR
09:57 -12.6 °C -15.5 °C 34797.9 hPa NNE 54.4 km/h 54.4 km/h 69 % 0 mm 295.0 W/m2 CLR
10:02 -12.6 °C -15.5 °C 34784.4 hPa NW 17.9 km/h 17.9 km/h 69 % 0 mm 387.0 W/m2 CLR
10:07 -12.6 °C -15.7 °C 34784.4 hPa North 49.2 km/h 49.2 km/h 68 % 0 mm 294.0 W/m2 CLR
10:12 -12.6 °C -15.7 °C 34784.4 hPa NNW 57 km/h 57 km/h 68 % 0 mm 167.0 W/m2 CLR
10:17 -12.6 °C -15.7 °C 34784.4 hPa NNW 56.6 km/h 56.6 km/h 68 % 0 mm 183.0 W/m2 CLR
10:22 -12.6 °C -15.7 °C 34797.9 hPa North 47.6 km/h 47.6 km/h 68 % 0 mm 132.0 W/m2 CLR
10:27 -12.6 °C -15.7 °C 34784.4 hPa NNW 62.6 km/h 62.6 km/h 68 % 0 mm 125.0 W/m2 CLR
10:32 -12.2 °C -15.4 °C 34797.9 hPa NNW 47.6 km/h 47.6 km/h 67 % 0 mm 478.0 W/m2 CLR
10:37 -12.2 °C -15.6 °C 34784.4 hPa North 44.7 km/h 44.7 km/h 66 % 0 mm 399.0 W/m2 CLR
10:42 -11.9 °C -15.3 °C 34784.4 hPa NW 38.8 km/h 38.8 km/h 66 % 0 mm 183.0 W/m2 CLR
10:47 -11.9 °C -15.3 °C 34797.9 hPa NW 50.7 km/h 50.7 km/h 66 % 0 mm 151.0 W/m2 CLR
10:52 -12.2 °C -15.6 °C 34797.9 hPa North 50.7 km/h 50.7 km/h 66 % 0 mm 297.0 W/m2 CLR
10:57 -11.9 °C -15.3 °C 34797.9 hPa North 50.7 km/h 50.7 km/h 66 % 0 mm 167.0 W/m2 CLR
11:02 -11.9 °C -15.3 °C 34797.9 hPa NW 68.6 km/h 68.6 km/h 66 % 0 mm 176.0 W/m2 CLR
11:07 -11.9 °C -15.3 °C 34797.9 hPa North 44.7 km/h 44.7 km/h 66 % 0 mm 176.0 W/m2 CLR
11:12 -11.6 °C -15.1 °C 34808.1 hPa NNW 50.7 km/h 50.7 km/h 65 % 0 mm 480.0 W/m2 CLR
11:22 -11.6 °C -15.1 °C 34797.9 hPa NW 50.7 km/h 50.7 km/h 65 % 0 mm 220.0 W/m2 CLR
11:27 -11.6 °C -15.4 °C 34797.9 hPa North 62.6 km/h 62.6 km/h 63 % 0 mm 664.0 W/m2 CLR
11:32 -11.6 °C -15.4 °C 34797.9 hPa North 47.6 km/h 47.6 km/h 63 % 0 mm 540.0 W/m2 CLR
11:37 -11.6 °C -15.4 °C 34797.9 hPa NW 38.8 km/h 38.8 km/h 63 % 0 mm 517.0 W/m2 CLR
11:42 -11.3 °C -15.2 °C 34784.4 hPa NNW 68.6 km/h 68.6 km/h 62 % 0 mm 527.0 W/m2 CLR
11:47 -11.3 °C -15.2 °C 34784.4 hPa NW 68.6 km/h 68.6 km/h 62 % 0 mm 221.0 W/m2 CLR
11:52 -11.6 °C -15.5 °C 34797.9 hPa NNW 62.6 km/h 62.6 km/h 62 % 0 mm 522.0 W/m2 CLR
11:57 -11.3 °C -15.2 °C 34797.9 hPa NNW 54.4 km/h 54.4 km/h 62 % 0 mm 545.0 W/m2 CLR
12:02 -11.3 °C -15.3 °C 34797.9 hPa NNW 62.6 km/h 62.6 km/h 61 % 0 mm 146.0 W/m2 CLR
12:07 -11.6 °C -15.5 °C 34784.4 hPa North 50.7 km/h 50.7 km/h 62 % 0 mm 548.0 W/m2 CLR
12:12 -11.3 °C -15.3 °C 34774.2 hPa NW 50.7 km/h 50.7 km/h 61 % 0 mm 547.0 W/m2 CLR
12:17 -11.6 °C -15.6 °C 34760.7 hPa NW 47.6 km/h 47.6 km/h 61 % 0 mm 526.0 W/m2 CLR
12:22 -11.3 °C -15.3 °C 34760.7 hPa NNW 47.6 km/h 47.6 km/h 61 % 0 mm 524.0 W/m2 CLR
12:27 -11 °C -15.3 °C 34760.7 hPa NW 50.7 km/h 50.7 km/h 59 % 0 mm 527.0 W/m2 CLR
12:32 -11 °C -15.3 °C 34760.7 hPa North 44.7 km/h 44.7 km/h 59 % 0 mm 547.0 W/m2 CLR
12:37 -10.7 °C -15.1 °C 34760.7 hPa North 50.7 km/h 50.7 km/h 59 % 0 mm 570.0 W/m2 CLR
12:42 -10.7 °C -15.2 °C 34760.7 hPa North 47.6 km/h 47.6 km/h 58 % 0 mm 563.0 W/m2 CLR
12:47 -10.7 °C -15.2 °C 34760.7 hPa NNW 41.7 km/h 41.7 km/h 58 % 0 mm 227.0 W/m2 CLR
12:52 -11 °C -15.4 °C 34774.2 hPa NNE 50.7 km/h 50.7 km/h 58 % 0 mm 130.0 W/m2 CLR
12:57 -11.3 °C -15.6 °C 34760.7 hPa NW 33.6 km/h 33.6 km/h 59 % 0 mm 183.0 W/m2 CLR
13:02 -11.3 °C -15.6 °C 34760.7 hPa North 51.8 km/h 51.8 km/h 59 % 0 mm 200.0 W/m2 CLR
13:07 -11.3 °C -15.6 °C 34760.7 hPa North 53.6 km/h 53.6 km/h 59 % 0 mm 186.0 W/m2 CLR
13:12 -11 °C -15.2 °C 34774.2 hPa NW 44.7 km/h 44.7 km/h 60 % 0 mm 193.0 W/m2 CLR
13:17 -11 °C -15.2 °C 34774.2 hPa NNW 51.8 km/h 51.8 km/h 60 % 0 mm 202.0 W/m2 CLR
13:22 -11.3 °C -15.6 °C 34760.7 hPa NNW 56.6 km/h 56.6 km/h 59 % 0 mm 178.0 W/m2 CLR
13:27 -11.3 °C -15.6 °C 34760.7 hPa NNW 44.7 km/h 44.7 km/h 59 % 0 mm 165.0 W/m2 CLR
13:32 -11 °C -15.3 °C 34750.5 hPa NNW 47.6 km/h 47.6 km/h 59 % 0 mm 439.0 W/m2 CLR
13:37 -11 °C -15.4 °C 34750.5 hPa NNW 53.6 km/h 53.6 km/h 58 % 0 mm 100.0 W/m2 CLR
13:42 -11 °C -15.3 °C 34740.4 hPa NNW 46.7 km/h 46.7 km/h 59 % 0 mm 510.0 W/m2 CLR
13:47 -10.7 °C -15.2 °C 34740.4 hPa NW 44.7 km/h 44.7 km/h 58 % 0 mm 499.0 W/m2 CLR
13:53 -10.4 °C -15.2 °C 34740.4 hPa NW 53.6 km/h 53.6 km/h 56 % 0 mm 501.0 W/m2 CLR
13:58 -10.1 °C -14.9 °C 34740.4 hPa NW 44.7 km/h 44.7 km/h 56 % 0 mm 515.0 W/m2 CLR
14:03 -10.1 °C -15 °C 34726.8 hPa North 50.7 km/h 50.7 km/h 55 % 0 mm 499.0 W/m2 CLR
14:08 -10.1 °C -15 °C 34740.4 hPa NW 44.7 km/h 44.7 km/h 55 % 0 mm 104.0 W/m2 CLR
14:13 -10.4 °C -15.2 °C 34726.8 hPa NW 50.7 km/h 50.7 km/h 56 % 0 mm 480.0 W/m2 CLR
14:18 -10.4 °C -15.4 °C 34726.8 hPa NW 50.7 km/h 50.7 km/h 54 % 0 mm 452.0 W/m2 CLR
14:23 -10.1 °C -15.4 °C 34726.8 hPa North 68.6 km/h 68.6 km/h 52 % 0 mm 496.0 W/m2 CLR
14:28 -10.4 °C -15.6 °C 34726.8 hPa NW 68.6 km/h 68.6 km/h 53 % 0 mm 84.0 W/m2 CLR
14:33 -10.7 °C -15.7 °C 34726.8 hPa NNW 57 km/h 57 km/h 54 % 0 mm 257.0 W/m2 CLR
14:38 -10.7 °C -15.7 °C 34726.8 hPa North 29.8 km/h 33.6 km/h 54 % 0 mm 109.0 W/m2 CLR
14:43 -10.7 °C -15.7 °C 34740.4 hPa NNW 53.6 km/h 53.6 km/h 54 % 0 mm 139.0 W/m2 CLR
14:48 -10.7 °C -15.7 °C 34740.4 hPa NNW 44.7 km/h 44.7 km/h 54 % 0 mm 499.0 W/m2 CLR
14:53 -10.4 °C -15.6 °C 34726.8 hPa North 59.5 km/h 59.5 km/h 53 % 0 mm 120.0 W/m2 CLR
14:58 -10.4 °C -15.6 °C 34740.4 hPa NNW 65.5 km/h 65.5 km/h 53 % 0 mm 123.0 W/m2 CLR
15:03 -10.7 °C -15.7 °C 34740.4 hPa North 50.7 km/h 50.7 km/h 54 % 0 mm 84.0 W/m2 CLR
15:08 -10.7 °C -15.7 °C 34740.4 hPa North 44.1 km/h 44.1 km/h 54 % 0 mm 88.0 W/m2 CLR
15:13 -11 °C -15.9 °C 34726.8 hPa NNW 50.7 km/h 50.7 km/h 55 % 0 mm 121.0 W/m2 CLR
15:18 -10.7 °C -15.7 °C 34726.8 hPa NNW 68.6 km/h 68.6 km/h 54 % 0 mm 83.0 W/m2 CLR
15:23 -10.7 °C -15.7 °C 34726.8 hPa North 50.7 km/h 50.7 km/h 54 % 0 mm 200.0 W/m2 CLR
15:28 -11 °C -15.9 °C 34726.8 hPa NW 38.8 km/h 38.8 km/h 55 % 0 mm 95.0 W/m2 CLR
15:33 -11 °C -15.7 °C 34740.4 hPa North 53.6 km/h 53.6 km/h 56 % 0 mm 54.0 W/m2 FEW
15:38 -11 °C -15.6 °C 34726.8 hPa NW 44.7 km/h 44.7 km/h 57 % 0 mm 153.0 W/m2 FEW
15:43 -10.7 °C -15.4 °C 34726.8 hPa NW 44.7 km/h 44.7 km/h 56 % 0 mm 316.0 W/m2 CLR
15:48 -10.7 °C -15.6 °C 34726.8 hPa NNW 47.6 km/h 47.6 km/h 55 % 0 mm 77.0 W/m2 CLR
15:53 -10.7 °C -15.6 °C 34740.4 hPa NNW 51.8 km/h 51.8 km/h 55 % 0 mm 47.0 W/m2 CLR
15:58 -11 °C -15.7 °C 34740.4 hPa WNW 50.7 km/h 50.7 km/h 56 % 0 mm 244.0 W/m2 FEW
16:03 -11 °C -15.7 °C 34740.4 hPa NNW 50.7 km/h 50.7 km/h 56 % 0 mm 42.0 W/m2 SCT
16:08 -11 °C -15.7 °C 34740.4 hPa NNW 53.6 km/h 53.6 km/h 56 % 0 mm 54.0 W/m2 SCT
16:13 -11 °C -15.7 °C 34740.4 hPa North 44.7 km/h 44.7 km/h 56 % 0 mm 65.0 W/m2 SCT
16:18 -11 °C -15.7 °C 34750.5 hPa NNW 54.4 km/h 54.4 km/h 56 % 0 mm 33.0 W/m2 SCT
16:23 -11.3 °C -16 °C 34750.5 hPa North 41.7 km/h 41.7 km/h 56 % 0 mm 33.0 W/m2 SCT
16:28 -11.3 °C -15.9 °C 34750.5 hPa NW 44.7 km/h 44.7 km/h 57 % 0 mm 32.0 W/m2 BKN
16:33 -11.3 °C -15.9 °C 34750.5 hPa NNW 46.7 km/h 46.7 km/h 57 % 0 mm 26.0 W/m2 BKN
16:38 -11.3 °C -15.9 °C 34740.4 hPa NW 35.7 km/h 35.7 km/h 57 % 0 mm 25.0 W/m2 BKN
16:43 -11.3 °C -15.9 °C 34740.4 hPa NNW 50.7 km/h 50.7 km/h 57 % 0 mm 25.0 W/m2 BKN
16:48 -11.6 °C -16.2 °C 34750.5 hPa NNW 38.8 km/h 38.8 km/h 57 % 0 mm 25.0 W/m2 BKN
16:53 -11.6 °C -16.2 °C 34750.5 hPa North 56.6 km/h 56.6 km/h 57 % 0 mm 26.0 W/m2 BKN
16:58 -11.6 °C -16 °C 34750.5 hPa NNW 36.2 km/h 36.2 km/h 58 % 0 mm 33.0 W/m2 BKN
17:03 -11.6 °C -16 °C 34750.5 hPa NNW 50.7 km/h 50.7 km/h 58 % 0 mm 23.0 W/m2 BKN
17:08 -11.6 °C -16 °C 34750.5 hPa North 46.7 km/h 46.7 km/h 58 % 0 mm 21.0 W/m2 BKN
17:13 -11.6 °C -15.9 °C 34750.5 hPa NNW 38.8 km/h 38.8 km/h 59 % 0 mm 18.0 W/m2 BKN
17:18 -11.6 °C -15.9 °C 34750.5 hPa NNW 50.7 km/h 50.7 km/h 59 % 0 mm 21.0 W/m2 BKN
17:23 -11.6 °C -15.8 °C 34750.5 hPa North 54.4 km/h 54.4 km/h 60 % 0 mm 19.0 W/m2 BKN
17:28 -11.6 °C -15.8 °C 34750.5 hPa NW 41.7 km/h 41.7 km/h 60 % 0 mm 16.0 W/m2 BKN
17:33 -11.6 °C -15.8 °C 34750.5 hPa NNW 47.6 km/h 47.6 km/h 60 % 0 mm 14.0 W/m2 BKN
17:38 -11.9 °C -15.9 °C 34750.5 hPa NNW 50.7 km/h 50.7 km/h 61 % 0 mm 11.0 W/m2 BKN
17:43 -11.9 °C -15.9 °C 34760.7 hPa NNW 68.6 km/h 68.6 km/h 61 % 0 mm 7.0 W/m2 BKN
17:48 -11.9 °C -15.8 °C 34760.7 hPa WNW 57 km/h 57 km/h 62 % 0 mm 0.0 W/m2 OVC
17:53 -11.9 °C -15.7 °C 34760.7 hPa NNW 47.6 km/h 47.6 km/h 63 % 0 mm 0.0 W/m2 OVC
17:54 -11.9 °C -15.7 °C 34760.7 hPa NNW 47.6 km/h 47.6 km/h 63 % 0 mm 0.0 W/m2 OVC
17:59 -12.2 °C -15.9 °C 34760.7 hPa NW 26.9 km/h 26.9 km/h 63 % 0 mm 0.0 W/m2 CLR
18:04 -12.2 °C -15.8 °C 34760.7 hPa NW 38.8 km/h 38.8 km/h 64 % 0 mm 0.0 W/m2 CLR
18:09 -12.2 °C -15.7 °C 34760.7 hPa WNW 50.7 km/h 50.7 km/h 65 % 0 mm 0.0 W/m2 CLR
18:14 -12.6 °C -16 °C 34760.7 hPa WNW 56.6 km/h 56.6 km/h 65 % 0 mm 0.0 W/m2 CLR
18:19 -12.6 °C -16 °C 34774.2 hPa WNW 41.7 km/h 41.7 km/h 65 % 0 mm 0.0 W/m2 CLR
18:24 -12.6 °C -16 °C 34774.2 hPa NW 29.8 km/h 29.8 km/h 65 % 0 mm 0.0 W/m2 CLR
18:29 -12.6 °C -15.9 °C 34774.2 hPa NNW 46.7 km/h 46.7 km/h 66 % 0 mm 0.0 W/m2 CLR
18:34 -12.6 °C -15.9 °C 34784.4 hPa NW 41.7 km/h 41.7 km/h 66 % 0 mm 0.0 W/m2 CLR
18:39 -12.6 °C -15.9 °C 34784.4 hPa NW 35.7 km/h 35.7 km/h 66 % 0 mm 0.0 W/m2 CLR
18:44 -12.8 °C -16.2 °C 34784.4 hPa NW 26.9 km/h 26.9 km/h 66 % 0 mm 0.0 W/m2 CLR
18:49 -12.8 °C -15.9 °C 34784.4 hPa NNW 50.7 km/h 50.7 km/h 68 % 0 mm 0.0 W/m2 CLR
18:54 -12.8 °C -15.9 °C 34784.4 hPa NNW 33.6 km/h 33.6 km/h 68 % 0 mm 0.0 W/m2 CLR
18:59 -12.6 °C -15.5 °C 34797.9 hPa NW 26.9 km/h 26.9 km/h 69 % 0 mm 0.0 W/m2 CLR
19:04 -12.8 °C -15.8 °C 34797.9 hPa North 32.8 km/h 32.8 km/h 69 % 0 mm 0.0 W/m2 CLR
19:09 -12.8 °C -15.8 °C 34797.9 hPa WNW 32.8 km/h 32.8 km/h 69 % 0 mm 0.0 W/m2 CLR
19:14 -12.8 °C -15.8 °C 34797.9 hPa NNW 31.1 km/h 31.1 km/h 69 % 0 mm 0.0 W/m2 CLR
19:19 -12.8 °C -15.7 °C 34797.9 hPa NNW 23.8 km/h 23.8 km/h 70 % 0 mm 0.0 W/m2 CLR
19:24 -13.2 °C -16 °C 34797.9 hPa WNW 29.8 km/h 29.8 km/h 70 % 0 mm 0.0 W/m2 CLR
19:29 -13.2 °C -15.9 °C 34797.9 hPa NW 32.8 km/h 32.8 km/h 71 % 0 mm 0.0 W/m2 CLR
19:34 -12.8 °C -15.6 °C 34808.1 hPa NNW 41.7 km/h 41.7 km/h 71 % 0 mm 0.0 W/m2 CLR
19:39 -12.8 °C -15.6 °C 34808.1 hPa NW 47.6 km/h 47.6 km/h 71 % 0 mm 0.0 W/m2 CLR
19:44 -12.8 °C -15.5 °C 34808.1 hPa NNW 53.6 km/h 53.6 km/h 72 % 0 mm 0.0 W/m2 CLR
19:49 -12.8 °C -15.5 °C 34808.1 hPa NNW 41.7 km/h 41.7 km/h 72 % 0 mm 0.0 W/m2 CLR
19:54 -12.8 °C -15.4 °C 34808.1 hPa NW 50.7 km/h 50.7 km/h 73 % 0 mm 0.0 W/m2 CLR
19:59 -12.8 °C -15.4 °C 34808.1 hPa NW 50.7 km/h 50.7 km/h 73 % 0 mm 0.0 W/m2 CLR
20:04 -13.2 °C -15.7 °C 34808.1 hPa NW 41.7 km/h 41.7 km/h 73 % 0 mm 0.0 W/m2 CLR
20:09 -13.2 °C -15.7 °C 34808.1 hPa North 50.7 km/h 50.7 km/h 73 % 0 mm 0.0 W/m2 CLR
20:14 -13.2 °C -15.7 °C 34808.1 hPa NW 35.7 km/h 35.7 km/h 73 % 0 mm 0.0 W/m2 CLR
20:19 -13.2 °C -15.6 °C 34818.2 hPa NW 50.7 km/h 50.7 km/h 74 % 0 mm 0.0 W/m2 CLR
20:24 -13.2 °C -15.6 °C 34808.1 hPa WNW 29.8 km/h 29.8 km/h 74 % 0 mm 0.0 W/m2 CLR
20:29 -13.2 °C -15.6 °C 34808.1 hPa NW 47.6 km/h 47.6 km/h 74 % 0 mm 0.0 W/m2 CLR
20:34 -13.2 °C -15.6 °C 34808.1 hPa NNW 41.7 km/h 41.7 km/h 74 % 0 mm 0.0 W/m2 CLR
20:39 -13.2 °C -15.6 °C 34808.1 hPa NW 44.1 km/h 44.1 km/h 74 % 0 mm 0.0 W/m2 CLR
20:44 -13.2 °C -15.6 °C 34818.2 hPa NW 47.6 km/h 47.6 km/h 74 % 0 mm 0.0 W/m2 CLR
20:49 -13.2 °C -15.6 °C 34818.2 hPa WNW 35.7 km/h 35.7 km/h 74 % 0 mm 0.0 W/m2 CLR
20:54 -13.4 °C -15.9 °C 34818.2 hPa WNW 35.7 km/h 35.7 km/h 74 % 0 mm 0.0 W/m2 CLR
20:59 -13.4 °C -15.9 °C 34818.2 hPa NW 33.6 km/h 33.6 km/h 74 % 0 mm 0.0 W/m2 CLR
21:04 -13.4 °C -15.9 °C 34818.2 hPa NW 36.2 km/h 36.2 km/h 74 % 0 mm 0.0 W/m2 CLR
21:09 -13.4 °C -15.9 °C 34818.2 hPa ESE 29.8 km/h 29.8 km/h 74 % 0 mm 0.0 W/m2 CLR
21:14 -13.4 °C -15.9 °C 34818.2 hPa WNW 41.7 km/h 41.7 km/h 74 % 0 mm 0.0 W/m2 CLR
21:19 -13.4 °C -15.9 °C 34818.2 hPa NW 29.8 km/h 29.8 km/h 74 % 0 mm 0.0 W/m2 CLR
21:24 -13.4 °C -15.9 °C 34831.8 hPa NW 29.8 km/h 29.8 km/h 74 % 0 mm 0.0 W/m2 CLR
21:29 -13.4 °C -15.8 °C 34831.8 hPa WNW 35.7 km/h 35.7 km/h 75 % 0 mm 0.0 W/m2 CLR
21:34 -13.4 °C -15.8 °C 34831.8 hPa WNW 35.7 km/h 35.7 km/h 75 % 0 mm 0.0 W/m2 CLR
21:39 -13.4 °C -15.8 °C 34831.8 hPa WNW 29.8 km/h 29.8 km/h 75 % 0 mm 0.0 W/m2 CLR
21:44 -13.4 °C -15.8 °C 34841.9 hPa NNW 35.7 km/h 35.7 km/h 75 % 0 mm 0.0 W/m2 CLR
21:49 -13.8 °C -16.1 °C 34841.9 hPa NW 26.9 km/h 26.9 km/h 75 % 0 mm 0.0 W/m2 CLR
21:54 -13.8 °C -16.1 °C 34831.8 hPa West 25.9 km/h 25.9 km/h 75 % 0 mm 0.0 W/m2 CLR
21:59 -13.8 °C -16.1 °C 34831.8 hPa West 26.9 km/h 26.9 km/h 75 % 0 mm 0.0 W/m2 CLR
22:04 -13.8 °C -16.1 °C 34841.9 hPa WNW 23.8 km/h 23.8 km/h 75 % 0 mm 0.0 W/m2 CLR
22:09 -13.8 °C -16.1 °C 34841.9 hPa NW 36.2 km/h 36.2 km/h 75 % 0 mm 0.0 W/m2 CLR
22:14 -13.8 °C -16.1 °C 34831.8 hPa WNW 35.7 km/h 35.7 km/h 75 % 0 mm 0.0 W/m2 CLR
22:19 -13.8 °C -16.1 °C 34841.9 hPa West 38.8 km/h 38.8 km/h 75 % 0 mm 0.0 W/m2 CLR
22:24 -13.8 °C -16.1 °C 34841.9 hPa WNW 32.8 km/h 32.8 km/h 75 % 0 mm 0.0 W/m2 CLR
22:29 -13.8 °C -16.1 °C 34841.9 hPa WNW 46.7 km/h 46.7 km/h 75 % 0 mm 0.0 W/m2 CLR
22:34 -13.4 °C -15.8 °C 34841.9 hPa WNW 36.2 km/h 36.2 km/h 75 % 0 mm 0.0 W/m2 CLR
22:39 -13.4 °C -15.8 °C 34841.9 hPa WNW 32.8 km/h 32.8 km/h 75 % 0 mm 0.0 W/m2 CLR
22:44 -13.4 °C -15.7 °C 34841.9 hPa WNW 35.7 km/h 35.7 km/h 76 % 0 mm 0.0 W/m2 CLR
22:49 -13.4 °C -15.7 °C 34841.9 hPa WNW 33.6 km/h 33.6 km/h 76 % 0 mm 0.0 W/m2 CLR
22:54 -13.8 °C -15.9 °C 34841.9 hPa West 41.7 km/h 41.7 km/h 76 % 0 mm 0.0 W/m2 CLR
22:59 -13.8 °C -15.9 °C 34841.9 hPa West 38.8 km/h 38.8 km/h 76 % 0 mm 0.0 W/m2 CLR
23:04 -13.8 °C -15.9 °C 34841.9 hPa WNW 29.8 km/h 29.8 km/h 76 % 0 mm 0.0 W/m2 CLR
23:09 -13.8 °C -15.9 °C 34841.9 hPa WNW 41.7 km/h 41.7 km/h 76 % 0 mm 0.0 W/m2 CLR
23:14 -13.8 °C -15.9 °C 34852.1 hPa WNW 41.7 km/h 41.7 km/h 76 % 0 mm 0.0 W/m2 CLR
23:19 -13.8 °C -15.9 °C 34841.9 hPa NW 35.7 km/h 35.7 km/h 76 % 0 mm 0.0 W/m2 CLR
23:24 -13.8 °C -15.9 °C 34841.9 hPa WNW 35.7 km/h 35.7 km/h 76 % 0 mm 0.0 W/m2 CLR
23:29 -13.8 °C -15.9 °C 34841.9 hPa NW 38.8 km/h 38.8 km/h 77 % 0 mm 0.0 W/m2 CLR
23:34 -13.8 °C -15.9 °C 34841.9 hPa NW 47.6 km/h 47.6 km/h 76 % 0 mm 0.0 W/m2 CLR
23:39 -13.8 °C -15.9 °C 34852.1 hPa NW 44.7 km/h 44.7 km/h 76 % 0 mm 0.0 W/m2 CLR
23:44 -13.8 °C -15.9 °C 34841.9 hPa WNW 44.7 km/h 44.7 km/h 76 % 0 mm 0.0 W/m2 CLR
23:49 -13.8 °C -15.9 °C 34852.1 hPa NW 47.6 km/h 47.6 km/h 76 % 0 mm 0.0 W/m2 CLR
23:54 -13.8 °C -15.9 °C 34841.9 hPa NW 44.7 km/h 44.7 km/h 76 % 0 mm 0.0 W/m2 CLR
23:59 -13.8 °C -16.1 °C 34841.9 hPa WNW 32.8 km/h 32.8 km/h 75 % 0 mm 0.0 W/m2 CLR
Lo Temps de Massalio
Compliments of Weather Underground - 1.25 mb